Time;durP1;ratioP1;P1;durP2;ratioP2;P2;SDS_P1;SDS_P2;PMS_P1;PMS_P2;Temp;Humidity;BMP_temperature;BMP_pressure;BME280_temperature;BME280_humidity;BME280_pressure;Samples;Min_cycle;Max_cycle;Signal;HPM_P1;HPM_P2
2021/01/03 00:00:24;;;;;;;17.40;3.70;;;20.90;24.00;;;;;;5107667;28;20428;-60
2021/01/03 00:02:51;;;;;;;14.27;4.00;;;20.80;25.20;;;;;;5103844;28;20064;-61
2021/01/03 00:05:24;;;;;;;26.67;4.65;;;20.60;24.60;;;;;;5106878;28;20072;-57
2021/01/03 00:07:51;;;;;;;12.02;3.63;;;20.60;24.90;;;;;;5111081;28;20075;-57
2021/01/03 00:10:19;;;;;;;22.67;4.00;;;20.50;24.90;;;;;;5111494;28;20072;-59
2021/01/03 00:12:46;;;;;;;11.50;4.32;;;20.30;25.90;;;;;;5102383;28;20553;-56
2021/01/03 00:15:16;;;;;;;23.00;4.30;;;20.20;26.60;;;;;;5110199;28;20086;-57
2021/01/03 00:17:43;;;;;;;15.00;3.47;;;20.10;26.70;;;;;;5108791;28;20120;-60
2021/01/03 00:20:29;;;;;;;13.55;4.25;;;20.00;26.60;;;;;;5112478;28;20069;-58
2021/01/03 00:22:57;;;;;;;20.05;5.53;;;19.90;26.70;;;;;;5107065;28;20116;-59
2021/01/03 00:25:26;;;;;;;18.00;6.13;;;19.70;25.90;;;;;;5103241;28;20516;-55
2021/01/03 00:27:53;;;;;;;24.33;6.20;;;19.60;27.60;;;;;;5095223;28;20078;-55
2021/01/03 00:30:27;;;;;;;19.95;5.72;;;19.50;28.00;;;;;;5106904;28;20069;-56
2021/01/03 00:32:54;;;;;;;25.92;6.38;;;19.40;28.50;;;;;;5109387;28;20085;-57
2021/01/03 00:35:30;;;;;;;22.45;6.82;;;19.20;28.60;;;;;;5107110;28;20138;-56
2021/01/03 00:38:02;;;;;;;22.95;6.57;;;19.00;29.10;;;;;;5105401;28;20100;-56
2021/01/03 00:40:29;;;;;;;27.20;6.18;;;18.90;29.00;;;;;;5107944;28;20484;-56
2021/01/03 00:42:56;;;;;;;17.50;6.30;;;18.80;29.10;;;;;;5107933;28;20073;-57
2021/01/03 00:45:23;;;;;;;22.95;6.43;;;18.60;28.90;;;;;;5109892;28;20070;-59
2021/01/03 00:47:49;;;;;;;;;;;18.50;28.70;;;;;;5110210;28;20113;-59
2021/01/03 00:50:16;;;;;;;35.03;6.88;;;18.30;28.90;;;;;;5110068;28;19961;-58
2021/01/03 00:52:42;;;;;;;26.23;6.93;;;18.10;29.30;;;;;;5088869;28;20082;-58
2021/01/03 00:55:09;;;;;;;;;;;18.00;30.00;;;;;;5108578;28;20528;-59
2021/01/03 00:57:36;;;;;;;23.70;6.85;;;17.80;30.00;;;;;;5107035;28;19961;-58
2021/01/03 01:00:08;;;;;;;25.27;7.38;;;17.70;30.00;;;;;;5109344;28;20105;-58
2021/01/03 01:02:35;;;;;;;31.83;7.88;;;17.60;30.30;;;;;;5108803;28;20069;-58
2021/01/03 01:05:03;;;;;;;35.65;9.57;;;17.50;30.80;;;;;;5067714;28;20074;-57
2021/01/03 01:07:30;;;;;;;28.13;8.75;;;17.30;31.60;;;;;;5111516;28;20110;-59
2021/01/03 01:09:56;;;;;;;;;;;17.20;31.40;;;;;;5108255;28;20070;-56
2021/01/03 01:12:22;;;;;;;25.05;9.30;;;17.10;32.20;;;;;;5104979;28;19971;-59
2021/01/03 01:14:48;;;;;;;;;;;17.00;32.50;;;;;;5107366;27;20210;-58
2021/01/03 01:17:16;;;;;;;28.38;10.38;;;16.90;32.40;;;;;;5108383;28;20104;-57
2021/01/03 01:19:43;;;;;;;34.22;10.93;;;16.70;32.90;;;;;;5107084;28;20068;-59
2021/01/03 01:22:10;;;;;;;34.83;12.13;;;16.60;33.00;;;;;;5107454;28;20074;-56
2021/01/03 01:24:36;;;;;;;;;;;16.50;33.50;;;;;;5108476;28;20075;-58
2021/01/03 01:27:02;;;;;;;44.53;12.15;;;16.40;33.90;;;;;;5105576;28;20311;-58
2021/01/03 01:29:28;;;;;;;;;;;16.30;34.10;;;;;;5109209;28;20528;-57
2021/01/03 01:31:55;;;;;;;42.40;10.80;;;16.30;34.80;;;;;;5107231;28;20378;-59
2021/01/03 01:34:22;;;;;;;38.60;11.35;;;16.10;36.00;;;;;;5109809;28;20095;-58
2021/01/03 01:36:48;;;;;;;;;;;16.10;35.90;;;;;;5110500;28;20063;-58
2021/01/03 01:39:14;;;;;;;52.47;13.18;;;16.00;35.80;;;;;;5107029;28;20061;-54
2021/01/03 01:41:40;;;;;;;;;;;15.90;36.40;;;;;;5108482;28;20071;-60
2021/01/03 01:44:07;;;;;;;62.45;20.35;;;15.90;36.40;;;;;;5107603;28;20336;-57
2021/01/03 01:46:36;;;;;;;;;;;15.80;36.10;;;;;;5110105;28;20143;-59
2021/01/03 01:49:09;;;;;;;76.25;32.30;;;15.70;35.90;;;;;;5106637;28;19986;-58
2021/01/03 01:51:42;;;;;;;90.72;35.20;;;15.60;36.00;;;;;;5107222;28;20540;-58
2021/01/03 01:54:23;;;;;;;80.80;40.30;;;15.60;36.20;;;;;;5104814;28;20095;-58
2021/01/03 01:57:05;;;;;;;80.75;32.70;;;15.50;37.10;;;;;;5108314;28;20068;-55
2021/01/03 01:59:39;;;;;;;113.80;52.97;;;15.40;37.70;;;;;;5104832;28;20075;-60
2021/01/03 02:02:22;;;;;;;74.10;34.75;;;15.40;37.70;;;;;;5108132;28;20159;-57
2021/01/03 02:05:18;;;;;;;80.82;36.03;;;15.40;37.90;;;;;;5106925;28;20074;-59
2021/01/03 02:07:45;;;;;;;70.95;34.97;;;15.20;37.60;;;;;;5079716;28;20106;-58
2021/01/03 02:10:20;;;;;;;;;;;15.10;38.10;;;;;;5103783;28;20473;-58
2021/01/03 02:13:00;;;;;;;72.38;27.33;;;15.00;38.20;;;;;;5108300;28;19994;-58
2021/01/03 02:15:29;;;;;;;74.78;25.75;;;14.90;39.00;;;;;;5103803;28;20082;-59
2021/01/03 02:17:55;;;;;;;71.25;26.20;;;14.90;39.50;;;;;;5106709;28;20144;-57
2021/01/03 02:20:25;;;;;;;;;;;14.80;38.90;;;;;;5103903;28;20074;-57
2021/01/03 02:22:58;;;;;;;80.70;28.13;;;14.80;39.10;;;;;;5100417;28;19962;-60
2021/01/03 02:25:24;;;;;;;72.85;28.55;;;14.70;39.20;;;;;;5102233;28;20076;-56
2021/01/03 02:28:09;;;;;;;76.32;29.08;;;14.70;39.80;;;;;;5104215;28;20090;-55
2021/01/03 02:30:37;;;;;;;75.20;28.85;;;14.70;40.30;;;;;;5105413;28;20059;-54
2021/01/03 02:33:24;;;;;;;61.83;26.83;;;14.70;40.40;;;;;;5094762;28;20101;-55
2021/01/03 02:35:58;;;;;;;70.10;26.83;;;14.60;40.20;;;;;;5106379;28;20156;-54
2021/01/03 02:38:28;;;;;;;68.88;27.05;;;14.50;40.50;;;;;;5105858;28;20142;-58
2021/01/03 02:40:55;;;;;;;77.38;27.55;;;14.40;40.50;;;;;;5104136;28;20082;-58
2021/01/03 02:43:21;;;;;;;84.45;27.55;;;14.40;40.60;;;;;;5105554;28;20105;-55
2021/01/03 02:45:48;;;;;;;94.07;28.15;;;14.40;41.30;;;;;;5104264;28;20442;-59
2021/01/03 02:48:18;;;;;;;;;;;14.30;41.60;;;;;;5103672;28;20514;-56
2021/01/03 02:50:44;;;;;;;63.25;26.77;;;14.30;42.30;;;;;;5088671;28;19959;-59
2021/01/03 02:53:11;;;;;;;;;;;14.30;42.10;;;;;;5109174;28;20137;-60
2021/01/03 02:55:37;;;;;;;73.88;27.83;;;14.20;42.40;;;;;;5109995;28;20053;-58
2021/01/03 02:58:03;;;;;;;;;;;14.10;42.80;;;;;;5107285;28;20075;-59
2021/01/03 03:00:34;;;;;;;78.80;27.50;;;14.10;42.90;;;;;;5107000;28;20008;-60
2021/01/03 03:03:01;;;;;;;71.55;25.95;;;14.00;42.40;;;;;;5101210;28;20473;-58
2021/01/03 03:05:28;;;;;;;78.05;27.80;;;14.00;42.40;;;;;;5107917;28;20162;-59
2021/01/03 03:07:54;;;;;;;;;;;13.90;42.30;;;;;;5105645;28;20071;-58
2021/01/03 03:10:21;;;;;;;;;;;13.90;42.60;;;;;;5109341;28;19963;-58
2021/01/03 03:12:48;;;;;;;;;;;13.80;42.70;;;;;;5103517;28;20319;-61
2021/01/03 03:15:15;;;;;;;;;;;13.80;43.00;;;;;;5107810;28;19958;-60
2021/01/03 03:17:41;;;;;;;;;;;13.80;43.00;;;;;;5106555;28;19956;-57
2021/01/03 03:20:07;;;;;;;;;;;13.80;43.50;;;;;;5103641;28;20411;-57
2021/01/03 03:22:33;;;;;;;;;;;13.70;44.10;;;;;;5102677;28;19955;-53
2021/01/03 03:24:59;;;;;;;;;;;13.70;44.00;;;;;;5106762;28;19956;-58
2021/01/03 03:27:26;;;;;;;;;;;13.70;44.60;;;;;;5103302;28;20014;-55
2021/01/03 03:29:54;;;;;;;;;;;13.60;44.60;;;;;;5104963;28;20007;-55
2021/01/03 03:32:20;;;;;;;;;;;13.60;44.60;;;;;;5105302;28;20008;-56
2021/01/03 03:34:46;;;;;;;;;;;13.50;44.70;;;;;;5103721;28;20382;-56
2021/01/03 03:37:12;;;;;;;;;;;13.50;45.10;;;;;;5105149;28;20009;-57
2021/01/03 03:39:39;;;;;;;;;;;13.40;45.40;;;;;;5107133;28;19994;-58
2021/01/03 03:42:06;;;;;;;;;;;13.40;44.90;;;;;;5107083;28;20006;-60
2021/01/03 03:44:32;;;;;;;;;;;13.30;45.10;;;;;;5103315;28;19951;-61
2021/01/03 03:47:02;;;;;;;;;;;13.30;45.10;;;;;;5104880;28;20415;-60
2021/01/03 03:49:29;;;;;;;;;;;13.30;45.30;;;;;;5102230;28;19982;-55
2021/01/03 03:51:56;;;;;;;;;;;13.20;45.10;;;;;;5108165;28;20476;-59
2021/01/03 03:54:22;;;;;;;;;;;13.20;45.20;;;;;;5089565;28;20457;-59
2021/01/03 03:56:50;;;;;;;;;;;13.20;45.20;;;;;;5106091;28;19953;-57
2021/01/03 03:59:16;;;;;;;;;;;13.10;45.20;;;;;;5110041;28;20345;-59
2021/01/03 04:01:42;;;;;;;;;;;13.20;45.40;;;;;;5105825;28;19955;-54
2021/01/03 04:04:08;;;;;;;;;;;13.10;45.90;;;;;;5106530;28;19978;-55
2021/01/03 04:06:34;;;;;;;;;;;13.10;45.70;;;;;;5110398;27;19962;-57
2021/01/03 04:09:01;;;;;;;;;;;13.10;46.10;;;;;;5109807;28;20400;-57
2021/01/03 04:11:27;;;;;;;;;;;13.10;46.30;;;;;;5104516;28;20419;-55
2021/01/03 04:13:53;;;;;;;;;;;13.10;46.20;;;;;;5107556;28;19993;-57
2021/01/03 04:16:19;;;;;;;;;;;13.10;46.00;;;;;;5105659;28;19963;-57
2021/01/03 04:18:45;;;;;;;;;;;13.10;45.80;;;;;;5107547;28;19998;-56
2021/01/03 04:21:12;;;;;;;;;;;13.10;45.80;;;;;;5107782;28;19963;-56
2021/01/03 04:23:38;;;;;;;;;;;13.00;45.50;;;;;;5103476;28;19956;-56
2021/01/03 04:26:04;;;;;;;;;;;13.00;45.20;;;;;;5108439;28;19962;-53
2021/01/03 04:28:31;;;;;;;;;;;13.00;45.10;;;;;;5108886;28;19986;-56
2021/01/03 04:30:57;;;;;;;;;;;13.00;45.20;;;;;;5109424;28;19963;-54
2021/01/03 04:33:23;;;;;;;;;;;13.00;45.20;;;;;;5087590;28;20010;-54
2021/01/03 04:35:50;;;;;;;;;;;13.00;44.70;;;;;;5103693;28;20296;-57
2021/01/03 04:38:16;;;;;;;;;;;13.00;44.70;;;;;;5106474;28;20398;-53
2021/01/03 04:40:42;;;;;;;;;;;13.00;45.40;;;;;;5105512;28;20049;-55
2021/01/03 04:43:12;;;;;;;;;;;13.00;45.80;;;;;;5108585;28;20012;-58
2021/01/03 04:45:40;;;;;;;;;;;13.00;45.20;;;;;;5109554;28;20416;-54
2021/01/03 04:48:26;;;;;;;;;;;13.10;45.20;;;;;;5105049;28;19994;-57
2021/01/03 04:50:58;;;;;;;;;;;13.10;45.10;;;;;;5106915;28;20008;-57
2021/01/03 04:53:36;;;;;;;;;;;13.10;45.00;;;;;;5107735;28;20352;-52
2021/01/03 04:56:14;;;;;;;;;;;13.00;44.70;;;;;;5105264;28;20007;-57
2021/01/03 04:58:56;;;;;;;;;;;13.00;44.20;;;;;;5106170;28;20045;-56
2021/01/03 05:01:40;;;;;;;;;;;13.00;44.30;;;;;;5108032;28;19955;-53
2021/01/03 05:04:12;;;;;;;;;;;13.00;44.10;;;;;;5106983;28;19953;-56
2021/01/03 05:06:43;;;;;;;;;;;13.00;44.60;;;;;;5091147;28;19954;-56
2021/01/03 05:09:09;;;;;;;;;;;13.00;45.10;;;;;;5106203;28;20048;-59
2021/01/03 05:11:35;;;;;;;;;;;13.10;44.80;;;;;;5104998;28;19954;-57
2021/01/03 05:14:02;;;;;;;;;;;13.10;45.20;;;;;;5107152;28;19974;-56
2021/01/03 05:16:28;;;;;;;;;;;13.10;45.00;;;;;;5089964;28;20304;-56
2021/01/03 05:18:54;;;;;;;;;;;13.10;44.90;;;;;;5104401;28;20364;-57
2021/01/03 05:21:20;;;;;;;;;;;13.00;45.20;;;;;;5106423;28;19962;-56
2021/01/03 05:24:03;;;;;;;;;;;13.00;45.20;;;;;;5110801;28;20009;-58
2021/01/03 05:26:33;;;;;;;;;;;13.00;45.20;;;;;;5106211;28;19958;-58
2021/01/03 05:28:59;;;;;;;;;;;13.00;45.80;;;;;;5108508;28;19958;-55
2021/01/03 05:31:26;;;;;;;;;;;12.90;45.70;;;;;;5107998;28;19968;-55
2021/01/03 05:33:56;;;;;;;;;;;12.90;45.90;;;;;;5106672;28;20335;-56
2021/01/03 05:36:31;;;;;;;;;;;12.90;45.80;;;;;;5107214;28;19956;-58
2021/01/03 05:38:58;;;;;;;;;;;12.90;45.70;;;;;;5108219;28;19959;-57
2021/01/03 05:41:33;;;;;;;;;;;12.80;46.00;;;;;;5085103;28;19992;-57
2021/01/03 05:44:08;;;;;;;;;;;12.80;46.60;;;;;;5104311;28;20346;-58
2021/01/03 05:46:37;;;;;;;;;;;12.90;46.80;;;;;;5106146;28;20178;-58
2021/01/03 05:49:23;;;;;;;;;;;12.80;47.00;;;;;;5107946;28;20132;-58
2021/01/03 05:52:09;;;;;;;;;;;12.80;47.30;;;;;;5108903;28;20327;-55
2021/01/03 05:54:37;;;;;;;;;;;12.70;47.60;;;;;;5109709;28;20333;-58
2021/01/03 05:57:08;;;;;;;;;;;12.70;47.20;;;;;;5091935;27;19998;-58
2021/01/03 05:59:35;;;;;;;;;;;12.70;47.20;;;;;;5111986;27;19962;-53
2021/01/03 06:02:10;;;;;;;;;;;12.70;47.50;;;;;;5089390;27;20053;-62
2021/01/03 06:04:36;;;;;;;;;;;12.60;47.60;;;;;;5110598;27;19981;-56
2021/01/03 06:07:06;;;;;;;;;;;12.60;47.60;;;;;;5109557;28;20042;-59
2021/01/03 06:09:39;;;;;;;;;;;12.60;48.10;;;;;;5109516;28;20005;-57
2021/01/03 06:12:08;;;;;;;;;;;12.60;48.30;;;;;;5104387;27;20001;-55
2021/01/03 06:14:34;;;;;;;;;;;12.50;48.30;;;;;;5108412;28;19964;-58
2021/01/03 06:17:23;;;;;;;;;;;12.60;48.60;;;;;;5109639;28;19955;-54
2021/01/03 06:19:51;;;;;;;;;;;12.50;48.50;;;;;;5110610;28;20329;-57
2021/01/03 06:22:35;;;;;;;;;;;12.40;48.50;;;;;;5108615;28;19959;-57
2021/01/03 06:25:03;;;;;;;;;;;12.40;48.50;;;;;;5107932;28;20046;-54
2021/01/03 06:27:31;;;;;;;;;;;12.30;48.40;;;;;;5109687;28;19962;-56
2021/01/03 06:30:08;;;;;;;;;;;12.30;48.90;;;;;;5102917;27;19982;-57
2021/01/03 06:33:00;;;;;;;;;;;12.20;49.40;;;;;;5109560;28;19971;-57
2021/01/03 06:35:32;;;;;;;;;;;12.20;49.40;;;;;;5066910;28;20008;-58
2021/01/03 06:38:08;;;;;;;;;;;12.10;49.60;;;;;;5109977;28;19954;-56
2021/01/03 06:40:36;;;;;;;;;;;12.10;49.90;;;;;;5108257;28;19953;-55
2021/01/03 06:43:28;;;;;;;;;;;12.10;49.80;;;;;;5108786;28;20418;-57
2021/01/03 06:46:12;;;;;;;;;;;12.10;50.40;;;;;;5108888;28;19998;-58
2021/01/03 06:48:55;;;;;;;;;;;12.10;50.70;;;;;;5107650;28;21783;-57
2021/01/03 06:51:33;;;;;;;;;;;12.00;50.60;;;;;;5101436;28;19950;-54
2021/01/03 06:54:05;;;;;;;;;;;12.00;50.50;;;;;;5106934;28;19982;-56
2021/01/03 06:56:37;;;;;;;;;;;12.00;50.40;;;;;;5107983;28;20394;-56
2021/01/03 06:59:05;;;;;;;;;;;11.90;50.70;;;;;;5106799;28;19956;-55
2021/01/03 07:01:33;;;;;;;;;;;11.90;51.00;;;;;;5107199;28;20008;-58
2021/01/03 07:04:00;;;;;;;;;;;11.80;51.00;;;;;;5092100;28;19955;-57
2021/01/03 07:06:33;;;;;;;;;;;11.80;51.20;;;;;;5106564;28;19962;-58
2021/01/03 07:09:05;;;;;;;;;;;11.80;51.20;;;;;;5108377;28;20391;-56
2021/01/03 07:11:43;;;;;;;;;;;11.70;51.50;;;;;;5104304;28;20334;-57
2021/01/03 07:14:12;;;;;;;;;;;11.70;51.50;;;;;;5108462;28;20096;-55
2021/01/03 07:16:57;;;;;;;;;;;11.60;51.80;;;;;;5084297;28;19955;-58
2021/01/03 07:19:33;;;;;;;;;;;11.60;51.90;;;;;;5090725;28;19995;-57
2021/01/03 07:22:14;;;;;;;;;;;11.60;52.30;;;;;;5107757;28;19955;-58
2021/01/03 07:24:47;;;;;;;;;;;11.60;52.20;;;;;;5106582;28;20447;-56
2021/01/03 07:27:16;;;;;;;;;;;11.60;52.60;;;;;;5110248;28;19955;-57
2021/01/03 07:29:57;;;;;;;;;;;11.50;52.60;;;;;;5113583;27;19962;-58
2021/01/03 07:32:26;;;;;;;;;;;11.40;52.40;;;;;;5109511;27;19959;-55
2021/01/03 07:34:53;;;;;;;;;;;11.40;52.70;;;;;;5110294;27;20439;-58
2021/01/03 07:37:20;;;;;;;;;;;11.40;52.60;;;;;;5111285;27;20020;-58
2021/01/03 07:39:55;;;;;;;;;;;11.30;52.70;;;;;;5110885;28;19993;-53
2021/01/03 07:42:23;;;;;;;;;;;11.30;52.40;;;;;;5108620;28;19954;-55
2021/01/03 07:44:50;;;;;;;;;;;11.30;52.60;;;;;;5110794;28;20021;-55
2021/01/03 07:47:35;;;;;;;;;;;11.30;52.60;;;;;;5113401;27;20042;-53
2021/01/03 07:50:19;;;;;;;;;;;11.30;52.70;;;;;;5109404;28;20458;-57
2021/01/03 07:52:46;;;;;;;;;;;11.30;52.60;;;;;;5110702;28;20080;-56
2021/01/03 07:55:14;;;;;;;;;;;11.30;52.90;;;;;;5110998;27;20392;-58
2021/01/03 07:57:40;;;;;;;;;;;11.20;52.60;;;;;;5110911;28;20044;-57
2021/01/03 08:00:07;;;;;;;;;;;11.20;52.60;;;;;;5110699;27;20472;-56
2021/01/03 08:02:35;;;;;;;;;;;11.20;52.90;;;;;;5113649;28;19962;-54
2021/01/03 08:05:01;;;;;;;;;;;11.10;53.10;;;;;;5111008;27;20061;-54
2021/01/03 08:07:28;;;;;;;;;;;11.00;53.20;;;;;;5108599;28;19959;-53
2021/01/03 08:09:54;;;;;;;;;;;11.00;53.30;;;;;;5111003;28;19954;-58
2021/01/03 08:12:40;;;;;;;;;;;11.00;53.40;;;;;;5109983;28;19959;-56
2021/01/03 08:15:08;;;;;;;;;;;10.90;53.60;;;;;;5109631;28;19962;-53
2021/01/03 08:17:37;;;;;;;;;;;10.80;53.60;;;;;;5114466;27;19954;-57
2021/01/03 08:20:05;;;;;;;;;;;10.80;53.80;;;;;;5111507;27;19999;-55
2021/01/03 08:22:31;;;;;;;;;;;10.70;53.90;;;;;;5110865;28;19955;-55
2021/01/03 08:25:00;;;;;;;;;;;10.80;54.00;;;;;;5133020;27;19959;-54
2021/01/03 08:27:32;;;;;;;;;;;10.80;53.90;;;;;;5097457;28;19962;-53
2021/01/03 08:30:03;;;;;;;;;;;10.80;54.40;;;;;;5110629;27;20456;-57
2021/01/03 08:32:30;;;;;;;;;;;10.80;54.40;;;;;;5090366;27;19962;-57
2021/01/03 08:35:00;;;;;;;;;;;10.90;54.10;;;;;;5121633;27;19959;-58
2021/01/03 08:37:34;;;;;;;;;;;10.90;54.00;;;;;;5112168;28;19961;-57
2021/01/03 08:40:10;;;;;;;;;;;10.90;54.20;;;;;;5111144;28;19966;-56
2021/01/03 08:42:37;;;;;;;;;;;10.90;54.10;;;;;;5111621;28;19957;-55
2021/01/03 08:45:05;;;;;;;;;;;10.80;54.40;;;;;;5110981;27;20431;-55
2021/01/03 08:47:40;;;;;;;;;;;10.80;54.70;;;;;;5111897;28;20416;-56
2021/01/03 08:50:09;;;;;;;;;;;10.80;54.50;;;;;;5110698;28;19954;-58
2021/01/03 08:52:36;;;;;;;;;;;10.80;54.50;;;;;;5109794;28;20067;-56
2021/01/03 08:55:07;;;;;;;;;;;10.70;54.70;;;;;;5107090;27;19955;-54
2021/01/03 08:57:33;;;;;;;;;;;10.80;54.90;;;;;;5108068;28;20099;-56
2021/01/03 08:59:59;;;;;;;;;;;10.70;55.00;;;;;;5110359;28;19955;-56
2021/01/03 09:02:27;;;;;;;;;;;10.70;55.10;;;;;;5110583;27;20004;-58
2021/01/03 09:04:58;;;;;;;;;;;10.70;55.10;;;;;;5108624;28;19970;-55
2021/01/03 09:07:26;;;;;;;;;;;10.70;55.10;;;;;;5109152;27;19991;-56
2021/01/03 09:09:54;;;;;;;;;;;10.80;55.10;;;;;;5109345;28;19955;-54
2021/01/03 09:12:52;;;;;;;;;;;10.70;54.80;;;;;;5111000;28;20035;-54
2021/01/03 09:15:21;;;;;;;;;;;10.80;54.70;;;;;;5067223;28;20323;-55
2021/01/03 09:18:01;;;;;;;;;;;10.80;54.70;;;;;;5098403;27;19959;-54
2021/01/03 09:20:36;;;;;;;;;;;10.80;55.10;;;;;;5110511;27;19968;-53
2021/01/03 09:23:31;;;;;;;;;;;10.80;55.40;;;;;;5096635;28;19955;-53
2021/01/03 09:25:58;;;;;;;;;;;10.80;55.60;;;;;;5107882;27;20172;-56
2021/01/03 09:28:27;;;;;;;;;;;10.80;55.30;;;;;;5109384;28;19953;-58
2021/01/03 09:31:13;;;;;;;;;;;10.70;55.40;;;;;;5108104;27;19979;-55
2021/01/03 09:33:40;;;;;;;;;;;10.70;55.30;;;;;;5091257;28;19975;-58
2021/01/03 09:36:06;;;;;;;;;;;10.60;55.40;;;;;;5108667;27;20442;-55
2021/01/03 09:38:35;;;;;;;;;;;10.60;55.90;;;;;;5109425;27;19962;-55
2021/01/03 09:41:20;;;;;;;;;;;10.60;56.10;;;;;;5111559;27;19956;-56
2021/01/03 09:44:08;;;;;;;;;;;10.50;56.00;;;;;;5107336;28;20325;-56
2021/01/03 09:46:37;;;;;;;;;;;10.40;56.30;;;;;;5108792;28;20426;-58
2021/01/03 09:49:14;;;;;;;;;;;10.40;57.10;;;;;;5110218;27;20005;-52
2021/01/03 09:51:49;;;;;;;;;;;10.30;56.80;;;;;;5101021;28;19962;-56
2021/01/03 09:54:18;;;;;;;;;;;10.30;56.60;;;;;;5109848;28;19982;-53
2021/01/03 09:56:45;;;;;;;;;;;10.20;56.60;;;;;;5110005;28;19964;-58
2021/01/03 09:59:16;;;;;;;;;;;10.20;56.70;;;;;;5107594;28;19955;-55
2021/01/03 10:01:43;;;;;;;;;;;10.20;57.10;;;;;;5107967;27;19952;-56
2021/01/03 10:04:18;;;;;;;;;;;10.20;57.20;;;;;;5110099;28;19955;-58
2021/01/03 10:06:49;;;;;;;;;;;10.10;57.40;;;;;;5108829;28;19993;-59
2021/01/03 10:09:30;;;;;;;;;;;10.10;57.90;;;;;;5102527;28;19967;-57
2021/01/03 10:11:56;;;;;;;;;;;10.10;57.60;;;;;;5109005;28;20045;-58
2021/01/03 10:14:41;;;;;;;;;;;10.10;57.80;;;;;;5111480;27;20357;-55
2021/01/03 10:17:18;;;;;;;;;;;10.00;57.90;;;;;;5098491;28;19954;-53
2021/01/03 10:19:44;;;;;;;;;;;10.10;58.10;;;;;;5105130;28;20000;-57
2021/01/03 10:22:29;;;;;;;;;;;10.10;57.90;;;;;;5095251;28;19965;-54
2021/01/03 10:24:56;;;;;;;;;;;10.00;58.10;;;;;;5097699;28;19962;-56
2021/01/03 10:27:22;;;;;;;;;;;10.00;58.10;;;;;;5105313;28;19955;-57
2021/01/03 10:29:48;;;;;;;;;;;9.90;58.20;;;;;;5110703;28;19955;-52
2021/01/03 10:32:14;;;;;;;;;;;9.90;58.10;;;;;;5107447;28;19955;-54
2021/01/03 10:34:41;;;;;;;;;;;9.90;57.90;;;;;;5111372;27;20011;-57
2021/01/03 10:37:07;;;;;;;;;;;9.90;58.00;;;;;;5108363;28;19963;-58
2021/01/03 10:39:33;;;;;;;;;;;9.80;57.90;;;;;;5109165;28;19955;-57
2021/01/03 10:42:02;;;;;;;;;;;9.90;58.20;;;;;;5108920;28;20441;-54
2021/01/03 10:44:28;;;;;;;;;;;9.80;58.40;;;;;;5109675;28;20334;-53
2021/01/03 10:46:55;;;;;;;;;;;9.70;58.40;;;;;;5108501;28;20001;-52
2021/01/03 10:49:21;;;;;;;;;;;9.80;58.50;;;;;;5092860;28;20006;-56
2021/01/03 10:51:48;;;;;;;;;;;9.80;58.30;;;;;;5095177;28;20046;-55
2021/01/03 10:54:17;;;;;;;;;;;9.80;58.50;;;;;;5090523;28;19998;-57
2021/01/03 10:56:51;;;;;;;;;;;9.70;58.50;;;;;;5089771;28;20403;-54
2021/01/03 10:59:17;;;;;;;;;;;9.70;58.60;;;;;;5092699;28;20082;-52
2021/01/03 11:01:44;;;;;;;;;;;9.80;58.70;;;;;;5092072;28;19956;-56
2021/01/03 11:04:10;;;;;;;;;;;9.70;58.10;;;;;;5095342;28;20003;-54
2021/01/03 11:06:40;;;;;;;;;;;9.70;58.30;;;;;;5092640;28;20384;-55
2021/01/03 11:09:08;;;;;;;;;;;9.80;58.20;;;;;;5100100;28;19959;-55
2021/01/03 11:11:34;;;;;;;;;;;9.80;58.40;;;;;;5099077;28;20339;-54
2021/01/03 11:14:00;;;;;;;;;;;9.70;58.90;;;;;;5093636;28;19975;-57
2021/01/03 11:16:45;;;;;;;;;;;9.70;58.20;;;;;;5092724;28;19965;-58
2021/01/03 11:19:13;;;;;;;;;;;9.70;58.10;;;;;;5098407;28;19963;-59
2021/01/03 11:21:39;;;;;;;;;;;9.70;58.40;;;;;;5091782;28;20421;-56
2021/01/03 11:24:05;;;;;;;;;;;9.70;58.70;;;;;;5093757;28;20343;-57
2021/01/03 11:26:34;;;;;;;;;;;9.70;58.70;;;;;;5096588;28;19955;-58
2021/01/03 11:29:01;;;;;;;;;;;9.70;58.60;;;;;;5097579;28;19962;-58
2021/01/03 11:31:36;;;;;;;;;;;9.70;59.00;;;;;;5094050;28;20470;-56
2021/01/03 11:34:03;;;;;;;;;;;9.60;58.30;;;;;;5097889;28;20070;-58
2021/01/03 11:36:30;;;;;;;;;;;9.60;58.70;;;;;;5093885;28;19955;-57
2021/01/03 11:38:58;;;;;;;;;;;9.50;58.70;;;;;;5091466;28;19962;-53
2021/01/03 11:41:24;;;;;;;;;;;9.40;59.90;;;;;;5094744;28;19966;-56
2021/01/03 11:43:50;;;;;;;;;;;9.40;59.20;;;;;;5094764;28;19955;-57
2021/01/03 11:46:18;;;;;;;;;;;9.50;59.20;;;;;;5098301;28;20009;-55
2021/01/03 11:48:44;;;;;;;;;;;9.40;59.30;;;;;;5097043;28;19983;-56
2021/01/03 11:51:10;;;;;;;;;;;9.40;59.70;;;;;;5105804;28;20290;-56
2021/01/03 11:53:37;;;;;;;;;;;9.40;59.50;;;;;;5108352;28;19985;-54
2021/01/03 11:56:04;;;;;;;;;;;9.30;59.40;;;;;;5110352;28;19961;-56
2021/01/03 11:58:31;;;;;;;;;;;9.30;59.60;;;;;;5106825;28;20330;-58
2021/01/03 12:00:57;;;;;;;;;;;9.30;59.80;;;;;;5107750;28;19955;-53
2021/01/03 12:03:23;;;;;;;;;;;9.30;59.60;;;;;;5105081;28;19983;-55
2021/01/03 12:05:49;;;;;;;;;;;9.30;59.90;;;;;;5108239;27;20010;-53
2021/01/03 12:08:16;;;;;;;;;;;9.30;60.00;;;;;;5110013;28;20024;-56
2021/01/03 12:10:42;;;;;;;;;;;9.30;60.00;;;;;;5093385;28;19970;-54
2021/01/03 12:13:08;;;;;;;;;;;9.30;60.10;;;;;;5105773;28;19983;-53
2021/01/03 12:15:34;;;;;;;;;;;9.30;60.10;;;;;;5107537;28;19959;-57
2021/01/03 12:18:00;;;;;;;;;;;9.30;59.90;;;;;;5108550;28;19997;-57
2021/01/03 12:20:28;;;;;;;;;;;9.30;59.90;;;;;;5106517;28;19958;-56
2021/01/03 12:22:54;;;;;;;;;;;9.20;60.40;;;;;;5099810;28;20304;-57
2021/01/03 12:25:21;;;;;;;;;;;9.20;60.30;;;;;;5093874;28;19998;-56
2021/01/03 12:27:47;;;;;;;;;;;9.20;60.60;;;;;;5099783;28;19963;-55
2021/01/03 12:30:14;;;;;;;;;;;9.20;61.40;;;;;;5107854;28;19955;-54
2021/01/03 12:32:40;;;;;;;;;;;8.90;60.90;;;;;;5104443;28;19966;-56
2021/01/03 12:35:08;;;;;;;;;;;9.10;60.90;;;;;;5107448;28;20001;-57
2021/01/03 12:37:36;;;;;;;;;;;9.10;60.90;;;;;;5108050;28;20001;-56
2021/01/03 12:40:03;;;;;;;;;;;9.10;61.50;;;;;;5098605;28;19980;-57
2021/01/03 12:42:29;;;;;;;;;;;9.10;60.80;;;;;;5107440;28;19953;-57
2021/01/03 12:44:55;;;;;;;;;;;9.10;60.80;;;;;;5107126;28;19955;-55
2021/01/03 12:47:21;;;;;;;;;;;9.10;60.20;;;;;;5083798;27;19966;-58
2021/01/03 12:49:47;;;;;;;;;;;9.00;60.10;;;;;;5118895;27;20368;-57
2021/01/03 12:52:13;;;;;;;;;;;9.10;60.20;;;;;;5118257;27;19955;-57
2021/01/03 12:54:40;;;;;;;;;;;9.10;59.90;;;;;;5117630;27;20393;-57
2021/01/03 12:57:06;;;;;;;;;;;9.10;60.20;;;;;;5115366;27;20097;-58
2021/01/03 12:59:32;;;;;;;;;;;9.00;60.50;;;;;;5115399;27;19955;-56
2021/01/03 13:01:58;;;;;;;;;;;9.00;60.10;;;;;;5100475;27;19966;-58
2021/01/03 13:04:24;;;;;;;;;;;9.10;60.60;;;;;;5117677;27;20597;-56
2021/01/03 13:06:51;;;;;;;;;;;9.00;59.80;;;;;;5119062;27;20316;-53
2021/01/03 13:09:20;;;;;;;;;;;9.00;60.10;;;;;;5117824;27;19974;-56
2021/01/03 13:11:47;;;;;;;;;;;9.00;59.80;;;;;;5098051;27;20426;-56
2021/01/03 13:14:13;;;;;;;;;;;8.90;60.00;;;;;;5098369;28;19985;-56
2021/01/03 13:16:40;;;;;;;;;;;8.90;59.80;;;;;;5114654;27;19954;-55
2021/01/03 13:19:06;;;;;;;;;;;8.80;60.20;;;;;;5113576;27;20022;-55
2021/01/03 13:21:32;;;;;;;;;;;8.80;60.20;;;;;;5113681;27;19970;-56
2021/01/03 13:23:59;;;;;;;;;;;8.90;60.00;;;;;;5110495;28;19963;-59
2021/01/03 13:26:25;;;;;;;;;;;8.90;60.00;;;;;;5117658;27;20805;-54
2021/01/03 13:28:51;;;;;;;;;;;8.90;59.80;;;;;;5119715;27;20000;-57
2021/01/03 13:31:18;;;;;;;;;;;8.80;59.90;;;;;;5114093;27;20676;-53
2021/01/03 13:33:45;;;;;;;;;;;8.80;59.90;;;;;;5117091;27;19982;-59
2021/01/03 13:36:12;;;;;;;;;;;8.90;59.90;;;;;;5115285;27;20338;-58
2021/01/03 13:38:38;;;;;;;;;;;8.90;59.90;;;;;;5112157;27;19967;-55
2021/01/03 13:41:04;;;;;;;;;;;8.90;59.90;;;;;;5113403;27;20383;-58
2021/01/03 13:43:30;;;;;;;;;;;8.80;60.00;;;;;;5094730;28;19962;-52
2021/01/03 13:45:56;;;;;;;;;;;8.80;60.30;;;;;;5114837;27;19962;-57
2021/01/03 13:48:22;;;;;;;;;;;8.80;60.40;;;;;;5111351;27;19979;-55
2021/01/03 13:50:48;;;;;;;;;;;8.80;60.10;;;;;;5106510;28;20354;-56
2021/01/03 13:53:15;;;;;;;;;;;8.70;60.60;;;;;;5109945;28;20446;-55
2021/01/03 13:55:41;;;;;;;;;;;8.60;61.30;;;;;;5110472;28;19966;-58
2021/01/03 13:58:07;;;;;;;;;;;8.50;61.90;;;;;;5098439;28;20438;-57
2021/01/03 14:00:33;;;;;;;;;;;8.60;61.80;;;;;;5101767;28;19994;-59
2021/01/03 14:02:59;;;;;;;;;;;8.50;61.90;;;;;;5108433;28;20097;-58
2021/01/03 14:05:25;;;;;;;;;;;8.50;61.80;;;;;;5109398;28;20318;-58
2021/01/03 14:07:51;;;;;;;;;;;8.50;61.50;;;;;;5106348;28;20427;-55
2021/01/03 14:10:18;;;;;;;;;;;8.40;61.50;;;;;;5103977;28;19961;-55
2021/01/03 14:12:45;;;;;;;;;;;8.40;61.70;;;;;;5107000;28;19966;-61